createdAt,value
2022-12-23T00:00:30.739Z,10.41
2022-12-23T00:01:33.350Z,10.83
2022-12-23T00:02:36.253Z,10.51
2022-12-23T00:03:39.241Z,10.02
2022-12-23T00:04:42.271Z,10.05
2022-12-23T00:05:44.753Z,10.14
2022-12-23T00:06:47.700Z,10.08
2022-12-23T00:07:50.243Z,9.24
2022-12-23T00:08:52.782Z,9.63
2022-12-23T00:09:55.341Z,8.75
2022-12-23T00:10:58.403Z,11.21
2022-12-23T00:12:00.927Z,10.53
2022-12-23T00:13:03.472Z,8.95
2022-12-23T00:14:06.023Z,9.37
2022-12-23T00:15:08.818Z,9.21
2022-12-23T00:16:12.387Z,9.75
2022-12-23T00:17:22.475Z,9.31
2022-12-23T00:18:19.423Z,10.02
2022-12-23T00:19:21.979Z,10.17
2022-12-23T00:20:24.959Z,10.05
2022-12-23T00:21:27.560Z,9.83
2022-12-23T00:22:30.134Z,10.10
2022-12-23T00:23:32.875Z,9.78
2022-12-23T00:24:35.468Z,10.27
2022-12-23T00:25:38.044Z,10.67
2022-12-23T00:26:40.890Z,10.72
2022-12-23T00:27:43.620Z,8.21
2022-12-23T00:28:46.165Z,12.13
2022-12-23T00:29:48.743Z,11.53
2022-12-23T00:30:51.533Z,10.79
2022-12-23T00:31:54.165Z,11.26
2022-12-23T00:32:56.813Z,11.63
2022-12-23T00:33:59.358Z,9.17
2022-12-23T00:35:01.888Z,10.80
2022-12-23T00:36:04.613Z,11.24
2022-12-23T00:37:07.184Z,11.16
2022-12-23T00:38:09.724Z,10.24
2022-12-23T00:39:12.337Z,10.51
2022-12-23T00:40:15.588Z,10.03
2022-12-23T00:41:18.169Z,10.86
2022-12-23T00:42:20.772Z,10.09
2022-12-23T00:43:23.313Z,9.66
2022-12-23T00:44:25.855Z,10.11
2022-12-23T00:45:28.432Z,10.31
2022-12-23T00:46:31.802Z,10.28
2022-12-23T00:47:34.521Z,10.59
2022-12-23T00:48:37.053Z,10.85
2022-12-23T00:49:40.060Z,10.45
2022-12-23T00:50:43.252Z,9.48
2022-12-23T00:51:45.773Z,8.56
2022-12-23T00:52:48.296Z,10.75
2022-12-23T00:53:50.844Z,9.95
2022-12-23T00:54:53.415Z,10.63
2022-12-23T00:55:55.946Z,10.56
2022-12-23T00:56:58.938Z,9.82
2022-12-23T00:58:01.524Z,10.84
2022-12-23T00:59:04.064Z,9.80
2022-12-23T01:00:06.921Z,10.19
2022-12-23T01:01:09.547Z,9.92
2022-12-23T01:02:12.339Z,10.11
2022-12-23T01:03:15.318Z,9.89
2022-12-23T01:04:18.159Z,9.50
2022-12-23T01:05:20.961Z,10.29
2022-12-23T01:06:24.127Z,11.22
2022-12-23T01:07:26.679Z,10.71
2022-12-23T01:08:29.208Z,10.90
2022-12-23T01:09:31.645Z,10.05
2022-12-23T01:10:34.488Z,9.48
2022-12-23T01:11:37.045Z,10.29
2022-12-23T01:12:39.639Z,10.45
2022-12-23T01:13:42.125Z,8.98
2022-12-23T01:14:44.863Z,9.95
2022-12-23T01:15:47.410Z,10.34
2022-12-23T01:16:50.213Z,6.06
2022-12-23T01:17:52.918Z,7.26
2022-12-23T01:18:55.471Z,10.40
2022-12-23T01:19:58.013Z,9.91
2022-12-23T01:21:00.865Z,9.82
2022-12-23T01:22:03.396Z,9.47
2022-12-23T01:23:05.979Z,9.91
2022-12-23T01:24:08.553Z,9.55
2022-12-23T01:25:11.093Z,9.89
2022-12-23T01:26:14.255Z,10.96
2022-12-23T01:27:17.089Z,10.55
2022-12-23T01:28:19.656Z,11.24
2022-12-23T01:29:22.215Z,9.83
2022-12-23T01:30:24.850Z,9.44
2022-12-23T01:31:27.678Z,9.38
2022-12-23T01:32:30.540Z,9.83
2022-12-23T01:33:33.147Z,9.87
2022-12-23T01:34:37.579Z,10.09
2022-12-23T01:35:40.322Z,10.78
2022-12-23T01:36:43.362Z,10.23
2022-12-23T01:37:45.939Z,10.25
2022-12-23T01:38:48.531Z,9.53
2022-12-23T01:39:51.107Z,9.03
2022-12-23T01:40:54.049Z,9.85
2022-12-23T01:41:56.595Z,10.59
2022-12-23T01:42:59.126Z,11.10
2022-12-23T01:44:01.688Z,10.29
2022-12-23T01:45:04.479Z,10.58
2022-12-23T01:46:07.767Z,10.80
2022-12-23T01:47:10.356Z,10.24
2022-12-23T01:48:12.930Z,9.78
2022-12-23T01:49:15.757Z,9.58
2022-12-23T01:50:18.424Z,10.87
2022-12-23T01:51:20.939Z,9.86
2022-12-23T01:52:23.495Z,10.07
2022-12-23T01:53:26.033Z,10.83
2022-12-23T01:54:28.601Z,10.54
2022-12-23T01:55:31.182Z,10.09
2022-12-23T01:56:33.819Z,10.04
2022-12-23T01:57:36.346Z,9.48
2022-12-23T01:58:38.913Z,9.95
2022-12-23T01:59:41.482Z,9.95
2022-12-23T02:00:44.122Z,9.27
2022-12-23T02:01:46.794Z,9.85
2022-12-23T02:02:49.629Z,10.34
2022-12-23T02:03:52.465Z,10.56
2022-12-23T02:04:55.040Z,9.42
2022-12-23T02:05:57.580Z,11.64
2022-12-23T02:07:00.405Z,11.41
2022-12-23T02:08:02.934Z,10.39
2022-12-23T02:09:05.376Z,9.79
2022-12-23T02:10:08.499Z,9.33
2022-12-23T02:11:10.998Z,10.03
2022-12-23T02:12:13.565Z,10.13
2022-12-23T02:13:16.097Z,10.81
2022-12-23T02:14:18.630Z,9.14
2022-12-23T02:15:21.196Z,9.33
2022-12-23T02:16:23.870Z,10.83
2022-12-23T02:17:26.574Z,11.14
2022-12-23T02:18:29.172Z,10.03
2022-12-23T02:19:31.962Z,10.22
2022-12-23T02:20:34.608Z,8.17
2022-12-23T02:21:37.151Z,10.34
2022-12-23T02:22:39.906Z,10.70
2022-12-23T02:23:42.470Z,9.91
2022-12-23T02:24:44.999Z,10.33
2022-12-23T02:25:47.583Z,9.95
2022-12-23T02:26:50.276Z,10.32
2022-12-23T02:27:52.814Z,10.51
2022-12-23T02:28:55.343Z,10.09
2022-12-23T02:29:57.899Z,10.19
2022-12-23T02:31:00.707Z,10.56
2022-12-23T02:32:03.202Z,11.18
2022-12-23T02:33:05.814Z,11.04
2022-12-23T02:34:08.328Z,10.04
2022-12-23T02:35:10.863Z,11.08
2022-12-23T02:36:13.764Z,12.09
2022-12-23T02:37:16.314Z,9.43
2022-12-23T02:38:18.880Z,9.60
2022-12-23T02:39:21.370Z,9.44
2022-12-23T02:40:24.029Z,9.68
2022-12-23T02:41:26.577Z,10.27
2022-12-23T02:42:29.119Z,9.80
2022-12-23T02:43:31.645Z,10.78
2022-12-23T02:44:34.329Z,10.02
2022-12-23T02:45:36.855Z,9.98
2022-12-23T02:46:39.776Z,9.50
2022-12-23T02:47:42.291Z,10.75
2022-12-23T02:48:44.798Z,10.37
2022-12-23T02:49:47.345Z,10.47
2022-12-23T02:50:50.715Z,9.14
2022-12-23T02:51:53.310Z,9.65
2022-12-23T02:52:55.905Z,10.20
2022-12-23T02:53:58.435Z,9.58
2022-12-23T02:55:01.290Z,10.83
2022-12-23T02:56:04.047Z,8.58
2022-12-23T02:57:06.618Z,10.45
2022-12-23T02:58:09.149Z,9.57
2022-12-23T02:59:11.879Z,9.49
2022-12-23T03:00:14.728Z,9.58
2022-12-23T03:01:17.342Z,9.16
2022-12-23T03:02:20.365Z,8.79
2022-12-23T03:03:23.167Z,9.37
2022-12-23T03:04:25.697Z,9.29
2022-12-23T03:05:28.149Z,8.61
2022-12-23T03:06:30.790Z,8.93
2022-12-23T03:07:33.361Z,9.05
2022-12-23T03:08:35.916Z,8.83
2022-12-23T03:09:38.417Z,8.47
2022-12-23T03:10:41.153Z,8.23
2022-12-23T03:11:43.763Z,8.89
2022-12-23T03:12:46.286Z,9.01
2022-12-23T03:13:48.826Z,9.20
2022-12-23T03:14:51.454Z,8.37
2022-12-23T03:15:54.052Z,9.15
2022-12-23T03:16:57.139Z,8.59
2022-12-23T03:17:59.728Z,8.09
2022-12-23T03:19:02.525Z,8.70
2022-12-23T03:20:05.127Z,5.74
2022-12-23T03:21:07.974Z,8.51
2022-12-23T03:22:10.512Z,7.81
2022-12-23T03:23:13.094Z,8.05
2022-12-23T03:24:15.636Z,7.01
2022-12-23T03:25:18.185Z,7.65
2022-12-23T03:26:20.818Z,7.65
2022-12-23T03:27:23.355Z,6.85
2022-12-23T03:28:25.920Z,7.07
2022-12-23T03:29:28.451Z,7.35
2022-12-23T03:30:31.183Z,6.97
2022-12-23T03:31:33.815Z,7.27
2022-12-23T03:32:36.581Z,7.69
2022-12-23T03:33:39.206Z,7.84
2022-12-23T03:34:41.699Z,7.87
2022-12-23T03:35:44.242Z,6.93
2022-12-23T03:36:47.608Z,7.14
2022-12-23T03:37:50.140Z,7.31
2022-12-23T03:38:52.743Z,6.96
2022-12-23T03:39:55.310Z,6.91
2022-12-23T03:40:58.580Z,7.37
2022-12-23T03:42:01.113Z,7.81
2022-12-23T03:43:03.657Z,6.81
2022-12-23T03:44:06.255Z,7.34
2022-12-23T03:45:37.407Z,6.83
2022-12-23T03:46:13.782Z,7.54
2022-12-23T03:47:16.272Z,6.36
2022-12-23T03:48:18.825Z,6.67
2022-12-23T03:49:21.458Z,7.01
2022-12-23T03:50:24.052Z,6.21
2022-12-23T03:51:26.599Z,6.75
2022-12-23T03:52:29.139Z,6.45
2022-12-23T03:53:31.663Z,6.27
2022-12-23T03:54:34.232Z,6.69
2022-12-23T03:55:36.779Z,7.27
2022-12-23T03:56:39.811Z,5.94
2022-12-23T03:57:42.358Z,6.47
2022-12-23T03:58:44.878Z,6.12
2022-12-23T03:59:47.462Z,5.56
2022-12-23T04:00:50.211Z,5.52
2022-12-23T04:01:52.887Z,5.87
2022-12-23T04:02:55.703Z,5.94
2022-12-23T04:03:58.519Z,5.86
2022-12-23T04:05:01.195Z,6.01
2022-12-23T04:06:03.819Z,5.67
2022-12-23T04:07:06.288Z,5.40
2022-12-23T04:08:08.878Z,6.12
2022-12-23T04:09:14.353Z,5.78
2022-12-23T04:10:16.086Z,5.53
2022-12-23T04:11:18.635Z,5.53
2022-12-23T04:12:21.163Z,5.78
2022-12-23T04:13:23.686Z,5.73
2022-12-23T04:14:26.230Z,5.67
2022-12-23T04:15:28.782Z,5.45
2022-12-23T04:16:31.480Z,6.12
2022-12-23T04:17:34.146Z,5.71
2022-12-23T04:18:36.586Z,5.65
2022-12-23T04:19:39.127Z,5.13
2022-12-23T04:20:41.797Z,5.14
2022-12-23T04:21:44.331Z,5.43
2022-12-23T04:22:46.873Z,5.84
2022-12-23T04:23:49.489Z,5.79
2022-12-23T04:24:52.024Z,5.61
2022-12-23T04:25:54.606Z,5.73
2022-12-23T04:26:57.536Z,5.94
2022-12-23T04:28:00.107Z,4.77
2022-12-23T04:29:02.608Z,6.19
2022-12-23T04:30:05.550Z,6.21
2022-12-23T04:31:08.168Z,5.87
2022-12-23T04:32:10.897Z,5.58
2022-12-23T04:33:13.487Z,6.28
2022-12-23T04:34:15.968Z,5.94
2022-12-23T04:35:18.507Z,6.69
2022-12-23T04:36:21.325Z,5.79
2022-12-23T04:37:23.859Z,6.02
2022-12-23T04:38:26.415Z,5.43
2022-12-23T04:39:28.945Z,6.31
2022-12-23T04:40:32.205Z,6.06
2022-12-23T04:41:34.793Z,5.77
2022-12-23T04:42:37.357Z,6.33
2022-12-23T04:43:39.931Z,6.44
2022-12-23T04:44:42.514Z,6.43
2022-12-23T04:45:45.048Z,7.30
2022-12-23T04:46:47.964Z,9.13
2022-12-23T04:47:50.564Z,6.77
2022-12-23T04:48:53.127Z,6.89
2022-12-23T04:49:55.662Z,6.77
2022-12-23T04:50:58.541Z,6.92
2022-12-23T04:52:01.318Z,6.66
2022-12-23T04:53:03.962Z,7.37
2022-12-23T04:54:06.522Z,6.59
2022-12-23T04:55:09.050Z,6.79
2022-12-23T04:56:12.609Z,6.24
2022-12-23T04:57:15.244Z,6.72
2022-12-23T04:58:17.753Z,7.15
2022-12-23T04:59:20.601Z,6.91
2022-12-23T05:00:23.543Z,7.21
2022-12-23T05:01:26.199Z,6.70
2022-12-23T05:02:29.019Z,6.26
2022-12-23T05:03:31.914Z,6.90
2022-12-23T05:04:34.617Z,5.80
2022-12-23T05:05:37.505Z,6.34
2022-12-23T05:06:40.451Z,6.08
2022-12-23T05:07:43.085Z,6.03
2022-12-23T05:08:45.631Z,6.72
2022-12-23T05:09:48.169Z,6.92
2022-12-23T05:10:50.823Z,6.79
2022-12-23T05:11:53.407Z,6.39
2022-12-23T05:12:55.928Z,6.38
2022-12-23T05:13:58.480Z,6.42
2022-12-23T05:15:00.997Z,6.74
2022-12-23T05:16:03.617Z,6.53
2022-12-23T05:17:07.933Z,7.13
2022-12-23T05:18:10.702Z,6.64
2022-12-23T05:19:13.243Z,6.63
2022-12-23T05:20:16.108Z,6.53
2022-12-23T05:21:18.631Z,6.09
2022-12-23T05:22:21.172Z,6.04
2022-12-23T05:23:23.735Z,6.21
2022-12-23T05:24:26.280Z,5.84
2022-12-23T05:25:28.979Z,7.00
2022-12-23T05:26:31.506Z,6.57
2022-12-23T05:27:34.078Z,7.15
2022-12-23T05:28:36.909Z,8.61
2022-12-23T05:29:39.464Z,6.26
2022-12-23T05:30:42.827Z,8.09
2022-12-23T05:31:45.432Z,7.29
2022-12-23T05:32:48.104Z,9.38
2022-12-23T05:33:50.767Z,12.84
2022-12-23T05:34:55.167Z,12.36
2022-12-23T05:35:57.709Z,9.61
2022-12-23T05:37:00.686Z,9.24
2022-12-23T05:38:03.226Z,7.64
2022-12-23T05:39:05.788Z,9.32
2022-12-23T05:40:09.297Z,8.26
2022-12-23T05:41:12.236Z,9.68
2022-12-23T05:42:14.852Z,8.81
2022-12-23T05:43:17.362Z,8.12
2022-12-23T05:44:19.975Z,8.41
2022-12-23T05:45:22.522Z,8.29
2022-12-23T05:46:27.089Z,8.51
2022-12-23T05:47:29.632Z,8.89
2022-12-23T05:48:32.170Z,9.65
2022-12-23T05:49:34.785Z,7.69
2022-12-23T05:50:37.496Z,7.15
2022-12-23T05:51:40.032Z,6.94
2022-12-23T05:52:42.578Z,7.75
2022-12-23T05:53:45.211Z,7.67
2022-12-23T05:54:47.930Z,7.63
2022-12-23T05:55:50.528Z,8.46
2022-12-23T05:56:53.493Z,7.28
2022-12-23T05:57:56.024Z,7.10
2022-12-23T05:58:58.559Z,6.43
2022-12-23T06:00:01.173Z,7.45
2022-12-23T06:01:03.689Z,7.29
2022-12-23T06:02:06.525Z,8.75
2022-12-23T06:03:09.432Z,9.56
2022-12-23T06:04:12.324Z,8.96
2022-12-23T06:05:19.965Z,9.44
2022-12-23T06:06:22.705Z,8.52
2022-12-23T06:07:25.301Z,7.93
2022-12-23T06:08:27.811Z,8.14
2022-12-23T06:09:30.337Z,6.93
2022-12-23T06:10:33.185Z,7.32
2022-12-23T06:11:35.738Z,7.47
2022-12-23T06:12:38.272Z,7.12
2022-12-23T06:13:40.806Z,7.55
2022-12-23T06:14:43.354Z,7.87
2022-12-23T06:15:45.919Z,6.26
2022-12-23T06:16:48.883Z,7.36
2022-12-23T06:17:51.411Z,8.29
2022-12-23T06:18:53.936Z,7.35
2022-12-23T06:19:56.471Z,8.84
2022-12-23T06:20:59.564Z,7.81
2022-12-23T06:22:02.093Z,8.43
2022-12-23T06:23:04.644Z,8.10
2022-12-23T06:24:07.164Z,6.71
2022-12-23T06:25:09.706Z,6.18
2022-12-23T06:26:14.016Z,6.94
2022-12-23T06:27:16.563Z,5.77
2022-12-23T06:28:19.136Z,5.18
2022-12-23T06:29:21.675Z,7.09
2022-12-23T06:30:24.416Z,7.10
2022-12-23T06:31:27.045Z,6.21
2022-12-23T06:32:34.545Z,7.06
2022-12-23T06:33:33.955Z,7.37
2022-12-23T06:34:36.470Z,6.01
2022-12-23T06:35:39.096Z,6.31
2022-12-23T06:36:41.721Z,6.67
2022-12-23T06:37:44.268Z,7.07
2022-12-23T06:38:46.807Z,7.58
2022-12-23T06:39:49.349Z,6.99
2022-12-23T06:40:52.107Z,7.49
2022-12-23T06:41:54.663Z,6.79
2022-12-23T06:42:57.198Z,6.61
2022-12-23T06:43:59.749Z,6.34
2022-12-23T06:45:02.275Z,6.29
2022-12-23T06:46:05.244Z,6.94
2022-12-23T06:47:08.089Z,7.97
2022-12-23T06:48:10.788Z,6.43
2022-12-23T06:49:13.963Z,6.52
2022-12-23T06:50:17.011Z,6.46
2022-12-23T06:51:19.444Z,6.85
2022-12-23T06:52:22.014Z,6.91
2022-12-23T06:53:24.584Z,7.01
2022-12-23T06:54:27.115Z,6.61
2022-12-23T06:55:29.648Z,6.73
2022-12-23T06:56:32.397Z,7.61
2022-12-23T06:57:34.963Z,7.04
2022-12-23T06:58:37.489Z,6.57
2022-12-23T06:59:40.107Z,6.54
2022-12-23T07:00:43.122Z,7.08
2022-12-23T07:01:45.753Z,7.13
2022-12-23T07:02:48.721Z,7.03
2022-12-23T07:03:51.410Z,6.01
2022-12-23T07:04:54.285Z,6.01
2022-12-23T07:05:56.813Z,6.85
2022-12-23T07:06:59.894Z,7.41
2022-12-23T07:08:02.470Z,7.56
2022-12-23T07:09:05.002Z,7.57
2022-12-23T07:10:08.362Z,6.78
2022-12-23T07:11:10.940Z,7.06
2022-12-23T07:12:13.629Z,6.53
2022-12-23T07:13:16.185Z,6.05
2022-12-23T07:14:18.733Z,6.39
2022-12-23T07:15:21.271Z,7.26
2022-12-23T07:16:24.033Z,5.79
2022-12-23T07:17:26.738Z,5.91
2022-12-23T07:18:29.436Z,6.74
2022-12-23T07:19:31.965Z,5.89
2022-12-23T07:20:34.727Z,6.69
2022-12-23T07:21:37.254Z,5.57
2022-12-23T07:22:39.825Z,6.95
2022-12-23T07:23:42.522Z,6.81
2022-12-23T07:24:45.064Z,6.91
2022-12-23T07:25:47.614Z,6.43
2022-12-23T07:26:50.455Z,6.92
2022-12-23T07:27:53.042Z,6.34
2022-12-23T07:28:55.565Z,7.33
2022-12-23T07:29:58.173Z,8.19
2022-12-23T07:31:01.454Z,6.90
2022-12-23T07:32:04.130Z,6.73
2022-12-23T07:33:07.088Z,7.39
2022-12-23T07:34:09.661Z,6.08
2022-12-23T07:35:12.206Z,5.81
2022-12-23T07:36:15.650Z,6.24
2022-12-23T07:37:18.191Z,6.01
2022-12-23T07:38:20.761Z,6.47
2022-12-23T07:39:23.334Z,6.49
2022-12-23T07:40:26.368Z,7.65
2022-12-23T07:41:28.903Z,7.56
2022-12-23T07:42:45.113Z,9.89
2022-12-23T07:43:35.831Z,10.23
2022-12-23T07:44:38.421Z,11.06
2022-12-23T07:45:41.032Z,9.81
2022-12-23T07:46:44.074Z,10.15
2022-12-23T07:47:46.914Z,10.88
2022-12-23T07:48:49.466Z,12.91
2022-12-23T07:49:52.074Z,10.83
2022-12-23T07:50:54.851Z,12.06
2022-12-23T07:51:57.282Z,12.91
2022-12-23T07:52:59.722Z,10.43
2022-12-23T07:54:02.261Z,12.80
2022-12-23T07:55:04.866Z,10.55
2022-12-23T07:56:07.930Z,11.63
2022-12-23T07:57:10.437Z,12.57
2022-12-23T07:58:13.037Z,10.63
2022-12-23T07:59:15.610Z,11.33
2022-12-23T08:00:18.318Z,10.56
2022-12-23T08:01:20.913Z,11.77
2022-12-23T08:02:23.927Z,11.88
2022-12-23T08:03:26.695Z,9.37
2022-12-23T08:04:29.205Z,9.57
2022-12-23T08:05:31.826Z,9.99
2022-12-23T08:06:34.616Z,11.98
2022-12-23T08:07:37.162Z,11.50
2022-12-23T08:08:39.679Z,10.89
2022-12-23T08:09:42.249Z,9.56
2022-12-23T08:10:48.421Z,9.58
2022-12-23T08:11:49.639Z,11.05
2022-12-23T08:12:52.190Z,10.05
2022-12-23T08:13:54.697Z,9.11
2022-12-23T08:14:57.223Z,10.83
2022-12-23T08:15:59.735Z,9.67
2022-12-23T08:17:02.297Z,10.33
2022-12-23T08:18:04.863Z,9.40
2022-12-23T08:19:07.392Z,8.96
2022-12-23T08:20:10.834Z,8.68
2022-12-23T08:21:13.443Z,9.71
2022-12-23T08:22:16.029Z,9.00
2022-12-23T08:23:23.019Z,8.59
2022-12-23T08:24:22.923Z,9.14
2022-12-23T08:25:25.464Z,10.35
2022-12-23T08:26:28.780Z,11.32
2022-12-23T08:27:31.260Z,10.23
2022-12-23T08:28:33.791Z,9.20
2022-12-23T08:29:36.751Z,9.22
2022-12-23T08:30:40.059Z,9.11
2022-12-23T08:31:42.677Z,9.19
2022-12-23T08:32:45.227Z,9.49
2022-12-23T08:33:47.761Z,9.81
2022-12-23T08:34:50.291Z,10.73
2022-12-23T08:35:52.724Z,10.99
2022-12-23T08:36:55.407Z,8.81
2022-12-23T08:37:57.934Z,10.68
2022-12-23T08:39:00.463Z,9.58
2022-12-23T08:40:03.129Z,12.23
2022-12-23T08:41:05.667Z,8.99
2022-12-23T08:42:08.239Z,10.43
2022-12-23T08:43:10.770Z,9.55
2022-12-23T08:44:13.514Z,8.86
2022-12-23T08:45:16.052Z,8.88
2022-12-23T08:46:18.900Z,9.99
2022-12-23T08:47:21.486Z,16.84
2022-12-23T08:48:24.025Z,8.07
2022-12-23T08:49:26.559Z,12.59
2022-12-23T08:50:29.529Z,9.06
2022-12-23T08:51:32.496Z,9.04
2022-12-23T08:52:35.115Z,9.87
2022-12-23T08:53:37.624Z,11.70
2022-12-23T08:54:40.230Z,10.25
2022-12-23T08:55:42.889Z,13.32
2022-12-23T08:56:45.759Z,12.20
2022-12-23T08:57:48.322Z,10.45
2022-12-23T08:58:50.863Z,10.74
2022-12-23T08:59:53.398Z,10.15
2022-12-23T09:00:56.152Z,8.46
2022-12-23T09:01:58.837Z,11.87
2022-12-23T09:03:01.662Z,8.83
2022-12-23T09:04:04.584Z,9.45
2022-12-23T09:05:07.285Z,8.72
2022-12-23T09:06:10.488Z,8.61
2022-12-23T09:07:13.024Z,9.53
2022-12-23T09:08:16.035Z,9.09
2022-12-23T09:09:18.592Z,9.86
2022-12-23T09:10:21.432Z,9.91
2022-12-23T09:11:24.337Z,9.02
2022-12-23T09:12:27.053Z,11.16
2022-12-23T09:13:35.224Z,9.51
2022-12-23T09:14:33.979Z,9.61
2022-12-23T09:15:36.960Z,11.97
2022-12-23T09:16:40.195Z,12.12
2022-12-23T09:17:42.717Z,11.70
2022-12-23T09:18:45.292Z,14.62
2022-12-23T09:19:52.694Z,9.65
2022-12-23T09:20:52.416Z,9.88
2022-12-23T09:21:54.978Z,10.97
2022-12-23T09:22:57.517Z,11.81
2022-12-23T09:24:00.097Z,9.59
2022-12-23T09:25:05.330Z,10.03
2022-12-23T09:26:07.986Z,11.32
2022-12-23T09:27:10.527Z,11.21
2022-12-23T09:28:13.062Z,14.13
2022-12-23T09:29:15.757Z,13.05
2022-12-23T09:30:18.593Z,13.21
2022-12-23T09:31:21.281Z,15.62
2022-12-23T09:32:23.923Z,13.32
2022-12-23T09:33:26.462Z,11.92
2022-12-23T09:34:29.038Z,15.96
2022-12-23T09:35:31.575Z,16.41
2022-12-23T09:36:34.338Z,11.69
2022-12-23T09:37:36.878Z,12.04
2022-12-23T09:38:39.404Z,11.87
2022-12-23T09:39:41.973Z,10.19
2022-12-23T09:40:44.713Z,9.41
2022-12-23T09:41:47.253Z,10.85
2022-12-23T09:42:50.091Z,9.11
2022-12-23T09:43:52.663Z,10.97
2022-12-23T09:44:55.213Z,9.21
2022-12-23T09:45:57.815Z,10.86
2022-12-23T09:47:00.747Z,9.38
2022-12-23T09:48:03.372Z,9.09
2022-12-23T09:49:05.928Z,7.59
2022-12-23T09:50:08.981Z,8.21
2022-12-23T09:51:11.546Z,9.78
2022-12-23T09:52:14.073Z,7.79
2022-12-23T09:53:16.612Z,8.33
2022-12-23T09:54:19.160Z,7.92
2022-12-23T09:55:21.760Z,7.49
2022-12-23T09:56:24.363Z,7.88
2022-12-23T09:57:26.881Z,7.53
2022-12-23T09:58:29.443Z,8.13
2022-12-23T09:59:32.080Z,7.63
2022-12-23T10:00:34.777Z,7.86
2022-12-23T10:01:43.005Z,9.11
2022-12-23T10:02:41.843Z,7.98
2022-12-23T10:03:45.073Z,8.12
2022-12-23T10:04:47.899Z,7.41
2022-12-23T10:05:50.653Z,7.68
2022-12-23T10:06:56.335Z,8.13
2022-12-23T10:07:57.995Z,8.25
2022-12-23T10:09:00.540Z,8.02
2022-12-23T10:10:03.389Z,7.81
2022-12-23T10:11:05.962Z,6.77
2022-12-23T10:12:08.477Z,8.93
2022-12-23T10:13:11.303Z,7.76
2022-12-23T10:14:13.840Z,8.16
2022-12-23T10:15:16.397Z,7.85
2022-12-23T10:16:19.205Z,7.22
2022-12-23T10:17:21.989Z,8.19
2022-12-23T10:18:24.590Z,7.31
2022-12-23T10:19:27.158Z,7.19
2022-12-23T10:20:30.126Z,8.03
2022-12-23T10:21:32.726Z,9.53
2022-12-23T10:22:35.423Z,8.55
2022-12-23T10:23:39.777Z,8.56
2022-12-23T10:24:42.363Z,8.31
2022-12-23T10:25:44.974Z,8.65
2022-12-23T10:26:47.963Z,8.01
2022-12-23T10:27:50.511Z,7.83
2022-12-23T10:28:53.240Z,7.49
2022-12-23T10:29:55.772Z,8.97
2022-12-23T10:31:23.731Z,8.38
2022-12-23T10:32:03.076Z,8.39
2022-12-23T10:33:05.863Z,8.83
2022-12-23T10:34:08.410Z,8.03
2022-12-23T10:35:10.945Z,13.42
2022-12-23T10:36:13.914Z,14.97
2022-12-23T10:37:16.508Z,10.73
2022-12-23T10:38:19.011Z,10.47
2022-12-23T10:39:21.568Z,9.41
2022-12-23T10:40:24.551Z,13.75
2022-12-23T10:41:27.025Z,10.18
2022-12-23T10:42:29.496Z,9.93
2022-12-23T10:43:32.031Z,9.09
2022-12-23T10:44:34.563Z,14.82
2022-12-23T10:45:37.126Z,8.57
2022-12-23T10:46:40.515Z,10.32
2022-12-23T10:47:43.072Z,9.61
2022-12-23T10:48:45.652Z,17.26
2022-12-23T10:49:48.186Z,18.45
2022-12-23T10:50:51.230Z,13.37
2022-12-23T10:51:55.140Z,12.67
2022-12-23T10:52:57.722Z,10.45
2022-12-23T10:54:00.290Z,11.75
2022-12-23T10:55:02.816Z,9.77
2022-12-23T10:56:05.811Z,10.82
2022-12-23T10:57:08.366Z,16.37
2022-12-23T10:58:10.901Z,10.25
2022-12-23T10:59:13.433Z,9.93
2022-12-23T11:00:16.252Z,10.47
2022-12-23T11:01:26.626Z,9.98
2022-12-23T11:02:23.485Z,9.72
2022-12-23T11:03:26.410Z,9.83
2022-12-23T11:04:29.233Z,10.17
2022-12-23T11:05:31.973Z,11.18
2022-12-23T11:06:37.468Z,12.23
2022-12-23T11:07:44.784Z,11.68
2022-12-23T11:08:43.403Z,11.50
2022-12-23T11:09:45.922Z,10.65
2022-12-23T11:10:48.662Z,11.42
2022-12-23T11:11:51.291Z,9.79
2022-12-23T11:12:53.917Z,10.31
2022-12-23T11:13:56.480Z,11.89
2022-12-23T11:14:59.006Z,9.97
2022-12-23T11:16:01.634Z,8.68
2022-12-23T11:17:04.393Z,8.90
2022-12-23T11:18:06.918Z,11.85
2022-12-23T11:19:09.381Z,9.25
2022-12-23T11:20:12.410Z,8.76
2022-12-23T11:21:14.965Z,9.27
2022-12-23T11:22:17.399Z,9.90
2022-12-23T11:23:20.039Z,9.30
2022-12-23T11:24:22.625Z,8.51
2022-12-23T11:25:25.157Z,10.48
2022-12-23T11:26:27.854Z,8.99
2022-12-23T11:27:30.388Z,9.64
2022-12-23T11:28:32.925Z,8.64
2022-12-23T11:29:35.491Z,9.16
2022-12-23T11:30:38.122Z,8.75
2022-12-23T11:31:40.709Z,9.13
2022-12-23T11:32:43.818Z,9.44
2022-12-23T11:33:46.350Z,9.33
2022-12-23T11:34:49.060Z,9.81
2022-12-23T11:35:51.590Z,9.16
2022-12-23T11:36:58.686Z,9.65
2022-12-23T11:37:59.758Z,9.96
2022-12-23T11:39:02.398Z,9.63
2022-12-23T11:40:05.304Z,9.88
2022-12-23T11:41:07.833Z,10.80
2022-12-23T11:42:10.363Z,10.26
2022-12-23T11:43:12.897Z,10.05
2022-12-23T11:44:15.439Z,8.76
2022-12-23T11:45:18.368Z,9.73
2022-12-23T11:46:21.305Z,9.86
2022-12-23T11:47:24.066Z,10.18
2022-12-23T11:48:26.598Z,10.13
2022-12-23T11:49:29.173Z,9.54
2022-12-23T11:50:31.952Z,10.48
2022-12-23T11:51:34.519Z,10.89
2022-12-23T11:52:37.047Z,9.67
2022-12-23T11:53:39.585Z,10.43
2022-12-23T11:54:42.133Z,10.09
2022-12-23T11:55:44.711Z,11.34
2022-12-23T11:56:47.387Z,10.03
2022-12-23T11:57:49.984Z,11.48
2022-12-23T11:58:52.557Z,11.39
2022-12-23T11:59:55.052Z,10.06
2022-12-23T12:00:58.450Z,10.85
2022-12-23T12:02:01.061Z,10.60
2022-12-23T12:03:03.806Z,10.59
2022-12-23T12:04:06.590Z,10.99
2022-12-23T12:05:09.116Z,11.62
2022-12-23T12:06:13.197Z,11.11
2022-12-23T12:07:15.848Z,12.47
2022-12-23T12:08:18.378Z,11.52
2022-12-23T12:09:20.927Z,11.47
2022-12-23T12:10:23.830Z,11.56
2022-12-23T12:11:26.397Z,11.34
2022-12-23T12:12:28.999Z,11.49
2022-12-23T12:13:31.520Z,11.30
2022-12-23T12:14:34.062Z,10.33
2022-12-23T12:15:36.583Z,10.66
2022-12-23T12:16:40.154Z,10.69
2022-12-23T12:17:42.943Z,9.40
2022-12-23T12:18:48.028Z,10.20
2022-12-23T12:19:49.867Z,9.49
2022-12-23T12:20:53.006Z,9.25
2022-12-23T12:21:55.572Z,8.49
2022-12-23T12:22:58.156Z,9.15
2022-12-23T12:24:17.674Z,8.57
2022-12-23T12:25:05.066Z,8.19
2022-12-23T12:26:08.560Z,8.53
2022-12-23T12:27:11.130Z,7.50
2022-12-23T12:28:13.778Z,7.89
2022-12-23T12:29:16.300Z,7.60
2022-12-23T12:30:20.165Z,8.05
2022-12-23T12:31:22.768Z,7.56
2022-12-23T12:32:25.448Z,8.33
2022-12-23T12:33:28.247Z,7.35
2022-12-23T12:34:30.786Z,7.92
2022-12-23T12:35:33.311Z,8.03
2022-12-23T12:36:36.209Z,8.13
2022-12-23T12:37:39.430Z,7.94
2022-12-23T12:38:42.043Z,7.57
2022-12-23T12:39:44.607Z,7.54
2022-12-23T12:40:47.450Z,6.69
2022-12-23T12:41:49.975Z,7.31
2022-12-23T12:42:52.547Z,7.99
2022-12-23T12:43:55.075Z,8.25
2022-12-23T12:44:57.606Z,7.99
2022-12-23T12:46:00.284Z,7.75
2022-12-23T12:47:15.939Z,9.06
2022-12-23T12:48:16.455Z,9.38
2022-12-23T12:49:11.898Z,9.65
2022-12-23T12:50:15.475Z,9.27
2022-12-23T12:51:18.000Z,9.61
2022-12-23T12:52:20.451Z,9.78
2022-12-23T12:53:23.020Z,10.73
2022-12-23T12:54:27.069Z,11.60
2022-12-23T12:55:29.674Z,7.45
2022-12-23T12:56:32.399Z,10.84
2022-12-23T12:57:34.927Z,12.56
2022-12-23T12:58:37.570Z,11.14
2022-12-23T12:59:40.119Z,10.83
2022-12-23T13:00:43.287Z,9.91
2022-12-23T13:01:45.877Z,9.11
2022-12-23T13:02:48.802Z,9.06
2022-12-23T13:03:51.768Z,9.78
2022-12-23T13:04:55.333Z,8.84
2022-12-23T13:05:57.869Z,10.05
2022-12-23T13:07:00.895Z,9.19
2022-12-23T13:08:06.593Z,9.77
2022-12-23T13:09:09.174Z,10.80
2022-12-23T13:10:12.436Z,9.82
2022-12-23T13:11:14.978Z,10.71
2022-12-23T13:12:17.513Z,13.73
2022-12-23T13:13:20.079Z,13.91
2022-12-23T13:14:22.610Z,13.76
2022-12-23T13:15:25.182Z,11.71
2022-12-23T13:16:28.038Z,9.80
2022-12-23T13:17:30.983Z,10.71
2022-12-23T13:18:33.585Z,10.52
2022-12-23T13:19:36.163Z,9.95
2022-12-23T13:20:41.100Z,9.59
2022-12-23T13:21:43.622Z,9.75
2022-12-23T13:22:46.186Z,9.12
2022-12-23T13:23:48.723Z,8.93
2022-12-23T13:24:51.343Z,9.13
2022-12-23T13:25:55.124Z,9.22
2022-12-23T13:26:58.043Z,9.88
2022-12-23T13:28:00.602Z,10.67
2022-12-23T13:29:03.137Z,10.09
2022-12-23T13:30:06.155Z,9.93
2022-12-23T13:31:08.923Z,10.18
2022-12-23T13:32:11.892Z,9.41
2022-12-23T13:33:14.448Z,10.47
2022-12-23T13:34:16.894Z,10.91
2022-12-23T13:35:19.485Z,12.07
2022-12-23T13:36:22.152Z,12.27
2022-12-23T13:37:24.840Z,10.71
2022-12-23T13:38:27.392Z,10.75
2022-12-23T13:39:29.963Z,11.29
2022-12-23T13:40:33.139Z,11.53
2022-12-23T13:41:35.740Z,11.99
2022-12-23T13:42:39.648Z,11.05
2022-12-23T13:43:42.192Z,11.43
2022-12-23T13:44:44.756Z,11.37
2022-12-23T13:45:47.414Z,12.25